createdAt,value
2022-09-06T00:01:14.865Z,15.43
2022-09-06T00:03:42.066Z,13.15
2022-09-06T00:06:15.635Z,14.63
2022-09-06T00:08:45.162Z,9.55
2022-09-06T00:11:19.423Z,9.23
2022-09-06T00:13:47.806Z,12.60
2022-09-06T00:16:28.549Z,9.73
2022-09-06T00:19:04.490Z,11.73
2022-09-06T00:21:36.326Z,9.27
2022-09-06T00:24:06.073Z,9.18
2022-09-06T00:26:36.654Z,8.38
2022-09-06T00:29:04.814Z,8.23
2022-09-06T00:31:33.094Z,10.27
2022-09-06T00:34:02.935Z,8.18
2022-09-06T00:36:36.006Z,7.40
2022-09-06T00:39:07.646Z,10.63
2022-09-06T00:41:35.739Z,9.52
2022-09-06T00:44:07.797Z,10.15
2022-09-06T00:46:45.814Z,11.88
2022-09-06T00:49:35.311Z,12.00
2022-09-06T00:52:09.749Z,9.75
2022-09-06T00:54:40.472Z,7.90
2022-09-06T00:57:08.721Z,8.70
2022-09-06T00:59:37.896Z,7.78
2022-09-06T01:02:24.291Z,9.50
2022-09-06T01:04:52.697Z,9.27
2022-09-06T01:07:29.421Z,9.85
2022-09-06T01:10:16.910Z,8.38
2022-09-06T01:13:22.585Z,6.63
2022-09-06T01:16:33.333Z,8.63
2022-09-06T01:19:37.714Z,7.63
2022-09-06T01:22:47.068Z,8.15
2022-09-06T01:25:52.570Z,8.95
2022-09-06T01:28:46.448Z,9.52
2022-09-06T01:31:48.462Z,10.27
2022-09-06T01:34:31.592Z,9.60
2022-09-06T01:37:10.980Z,8.47
2022-09-06T01:39:41.906Z,9.85
2022-09-06T01:42:31.168Z,7.75
2022-09-06T01:45:11.461Z,11.05
2022-09-06T01:48:10.283Z,9.25
2022-09-06T01:50:46.616Z,10.65
2022-09-06T01:53:55.187Z,11.23
2022-09-06T01:57:02.581Z,7.40
2022-09-06T01:59:35.611Z,10.85
2022-09-06T02:02:34.109Z,11.70
2022-09-06T02:05:18.989Z,9.15
2022-09-06T02:07:49.725Z,11.88
2022-09-06T02:10:37.628Z,11.55
2022-09-06T02:13:15.986Z,10.93
2022-09-06T02:15:58.898Z,12.27
2022-09-06T02:19:01.057Z,13.88
2022-09-06T02:21:40.587Z,20.13
2022-09-06T02:24:23.483Z,15.75
2022-09-06T02:26:54.816Z,14.35
2022-09-06T02:29:35.538Z,14.57
2022-09-06T02:32:02.825Z,14.57
2022-09-06T02:34:37.161Z,16.80
2022-09-06T02:37:06.716Z,13.48
2022-09-06T02:39:34.196Z,11.93
2022-09-06T02:42:12.875Z,12.32
2022-09-06T02:44:41.036Z,13.90
2022-09-06T02:47:17.012Z,13.52
2022-09-06T02:49:57.905Z,13.30
2022-09-06T02:52:24.963Z,12.90
2022-09-06T02:54:54.146Z,10.20
2022-09-06T02:57:30.048Z,12.65
2022-09-06T02:59:57.051Z,12.20
2022-09-06T03:02:26.359Z,12.68
2022-09-06T03:04:55.642Z,11.63
2022-09-06T03:07:26.632Z,10.20
2022-09-06T03:10:10.743Z,11.30
2022-09-06T03:15:09.221Z,11.55
2022-09-06T03:17:41.975Z,9.10
2022-09-06T03:20:23.327Z,11.55
2022-09-06T03:22:50.391Z,11.07
2022-09-06T03:25:36.293Z,12.38
2022-09-06T03:28:10.835Z,20.00
2022-09-06T03:30:38.119Z,16.17
2022-09-06T03:33:07.674Z,15.27
2022-09-06T03:35:34.808Z,14.52
2022-09-06T03:38:08.272Z,15.68
2022-09-06T03:40:36.679Z,13.57
2022-09-06T03:43:05.914Z,13.55
2022-09-06T03:45:41.304Z,12.52
2022-09-06T03:48:10.485Z,11.82
2022-09-06T03:50:38.743Z,13.60
2022-09-06T03:53:11.090Z,12.68
2022-09-06T03:55:48.964Z,11.32
2022-09-06T03:58:17.832Z,13.25
2022-09-06T04:00:45.436Z,11.70
2022-09-06T04:03:15.979Z,11.98
2022-09-06T04:05:47.083Z,11.10
2022-09-06T04:08:17.192Z,13.00
2022-09-06T04:10:53.503Z,14.05
2022-09-06T04:13:29.639Z,11.43
2022-09-06T04:16:00.108Z,17.13
2022-09-06T04:18:30.528Z,9.88
2022-09-06T04:21:07.532Z,10.82
2022-09-06T04:23:39.659Z,9.35
2022-09-06T04:26:13.401Z,15.90
2022-09-06T04:28:43.743Z,11.35
2022-09-06T04:31:15.066Z,10.68
2022-09-06T04:33:44.143Z,16.58
2022-09-06T04:36:19.263Z,19.50
2022-09-06T04:38:48.299Z,15.10
2022-09-06T04:41:17.363Z,11.93
2022-09-06T04:43:46.707Z,11.52
2022-09-06T04:46:27.368Z,17.60
2022-09-06T04:48:55.470Z,22.63
2022-09-06T04:51:22.805Z,21.50
2022-09-06T04:53:50.188Z,22.15
2022-09-06T04:56:20.946Z,12.23
2022-09-06T04:58:49.872Z,11.43
2022-09-06T05:01:17.284Z,13.13
2022-09-06T05:03:44.664Z,10.68
2022-09-06T05:06:19.953Z,9.25
2022-09-06T05:08:57.091Z,12.13
2022-09-06T05:11:26.264Z,9.00
2022-09-06T05:13:54.298Z,12.20
2022-09-06T05:16:29.573Z,11.60
2022-09-06T05:18:57.688Z,12.25
2022-09-06T05:21:24.836Z,10.65
2022-09-06T05:23:55.490Z,11.75
2022-09-06T05:26:27.682Z,12.50
2022-09-06T05:28:57.699Z,13.63
2022-09-06T05:31:33.466Z,16.48
2022-09-06T05:34:08.807Z,17.80
2022-09-06T05:36:42.378Z,12.95
2022-09-06T05:39:10.409Z,16.73
2022-09-06T05:41:37.508Z,17.77
2022-09-06T05:44:10.794Z,14.25
2022-09-06T05:46:45.896Z,16.08
2022-09-06T05:49:13.776Z,17.48
2022-09-06T05:51:41.555Z,16.63
2022-09-06T05:54:11.693Z,13.85
2022-09-06T05:56:39.749Z,14.27
2022-09-06T05:59:08.024Z,12.40
2022-09-06T06:01:36.306Z,13.30
2022-09-06T06:04:08.234Z,15.05
2022-09-06T06:06:37.494Z,12.95
2022-09-06T06:09:17.292Z,13.10
2022-09-06T06:11:46.392Z,13.10
2022-09-06T06:14:13.649Z,14.82
2022-09-06T06:16:43.913Z,14.00
2022-09-06T06:19:10.978Z,18.27
2022-09-06T06:21:47.084Z,13.65
2022-09-06T06:24:14.287Z,14.77
2022-09-06T06:26:42.354Z,11.68
2022-09-06T06:29:14.821Z,12.60
2022-09-06T06:31:45.092Z,11.35
2022-09-06T06:34:22.047Z,9.90
2022-09-06T06:36:49.549Z,13.00
2022-09-06T06:39:17.599Z,11.35
2022-09-06T06:41:44.999Z,11.95
2022-09-06T06:44:14.064Z,10.55
2022-09-06T06:46:42.026Z,9.32
2022-09-06T06:49:09.135Z,12.88
2022-09-06T06:51:39.914Z,12.63
2022-09-06T06:54:07.015Z,17.95
2022-09-06T06:56:45.809Z,14.38
2022-09-06T06:59:19.035Z,13.32
2022-09-06T07:01:46.240Z,26.70
2022-09-06T07:04:14.541Z,16.90
2022-09-06T07:12:31.714Z,15.93
2022-09-06T07:15:00.766Z,13.68
2022-09-06T07:17:33.056Z,12.18
2022-09-06T07:20:16.180Z,17.88
2022-09-06T07:22:43.838Z,17.00
2022-09-06T07:25:16.528Z,17.58
2022-09-06T07:28:09.518Z,16.83
2022-09-06T07:30:39.554Z,19.20
2022-09-06T07:33:12.993Z,18.27
2022-09-06T07:35:39.999Z,15.88
2022-09-06T07:38:09.050Z,16.20
2022-09-06T07:40:41.932Z,18.17
2022-09-06T07:43:12.120Z,18.13
2022-09-06T07:45:46.052Z,16.48
2022-09-06T07:48:13.111Z,13.82
2022-09-06T07:50:49.258Z,12.75
2022-09-06T07:53:24.651Z,13.77
2022-09-06T07:55:57.892Z,15.52
2022-09-06T07:58:26.019Z,13.27
2022-09-06T08:00:53.263Z,12.98
2022-09-06T08:03:20.529Z,13.18
2022-09-06T08:06:13.718Z,14.70
2022-09-06T08:08:57.929Z,13.43
2022-09-06T08:11:29.378Z,13.75
2022-09-06T08:14:00.475Z,12.68
2022-09-06T08:16:41.552Z,11.90
2022-09-06T08:19:12.558Z,13.88
2022-09-06T08:21:39.664Z,11.57
2022-09-06T08:24:12.186Z,16.30
2022-09-06T08:29:13.963Z,10.73
2022-09-06T08:31:47.203Z,15.23
2022-09-06T08:34:15.466Z,13.48
2022-09-06T08:36:48.402Z,10.30
2022-09-06T08:39:18.153Z,10.10
2022-09-06T08:42:08.248Z,16.33
2022-09-06T08:47:26.446Z,14.13
2022-09-06T08:50:04.302Z,12.93
2022-09-06T08:55:39.182Z,8.98
2022-09-06T08:58:29.260Z,9.18
2022-09-06T09:01:19.118Z,16.70
2022-09-06T09:03:47.382Z,11.13
2022-09-06T09:06:17.344Z,13.48
2022-09-06T09:08:56.395Z,9.27
2022-09-06T09:11:26.419Z,12.95
2022-09-06T09:14:02.117Z,12.60
2022-09-06T09:16:33.373Z,8.55
2022-09-06T09:19:04.465Z,10.23
2022-09-06T09:21:36.866Z,11.45
2022-09-06T09:24:07.546Z,10.13
2022-09-06T09:26:57.031Z,13.43
2022-09-06T09:29:29.447Z,11.75
2022-09-06T09:31:59.240Z,13.60
2022-09-06T09:34:36.166Z,10.60
2022-09-06T09:40:29.937Z,12.65
2022-09-06T09:43:11.155Z,12.10
2022-09-06T09:45:41.781Z,12.15
2022-09-06T09:48:28.710Z,13.95
2022-09-06T09:51:26.254Z,11.45
2022-09-06T09:53:59.401Z,9.65
2022-09-06T09:56:55.973Z,10.43
2022-09-06T09:59:43.715Z,11.90
2022-09-06T10:05:13.433Z,14.40
2022-09-06T10:10:15.370Z,11.07
2022-09-06T10:12:43.192Z,10.25
2022-09-06T10:15:31.749Z,11.50
2022-09-06T10:17:59.909Z,10.13
2022-09-06T10:20:39.398Z,12.10
2022-09-06T10:26:24.819Z,8.82
2022-09-06T10:31:39.458Z,10.05
2022-09-06T10:34:48.967Z,9.45
2022-09-06T10:37:46.648Z,7.97
2022-09-06T10:40:30.043Z,10.55
2022-09-06T10:43:00.124Z,11.02
2022-09-06T10:45:46.421Z,12.57
2022-09-06T10:48:19.449Z,9.23
2022-09-06T10:51:00.216Z,10.32
2022-09-06T10:53:47.418Z,8.35
2022-09-06T10:56:55.610Z,13.23
2022-09-06T10:59:53.545Z,9.63
2022-09-06T11:06:20.031Z,8.68
2022-09-06T11:09:12.476Z,9.32
2022-09-06T11:12:31.135Z,12.45
2022-09-06T11:15:03.744Z,10.18
2022-09-06T11:17:45.709Z,10.00
2022-09-06T11:20:39.627Z,7.63
2022-09-06T11:23:39.936Z,11.88
2022-09-06T11:26:47.936Z,8.48
2022-09-06T11:29:26.529Z,8.20
2022-09-06T11:32:17.167Z,7.57
2022-09-06T11:34:54.723Z,8.82
2022-09-06T11:37:43.202Z,10.23
2022-09-06T11:42:59.724Z,8.23
2022-09-06T11:45:48.076Z,17.02
2022-09-06T11:48:35.226Z,9.35
2022-09-06T11:51:11.348Z,8.38
2022-09-06T11:53:50.689Z,8.48
2022-09-06T11:56:48.195Z,7.57
2022-09-06T11:59:21.762Z,9.38
2022-09-06T12:05:09.857Z,9.50
2022-09-06T12:07:58.921Z,6.90
2022-09-06T12:10:31.808Z,7.40
2022-09-06T12:12:59.954Z,8.95
2022-09-06T12:15:53.644Z,7.68
2022-09-06T12:21:07.577Z,8.63
2022-09-06T12:23:37.777Z,8.70
2022-09-06T12:26:10.390Z,10.43
2022-09-06T12:28:47.642Z,6.45
2022-09-06T12:31:43.070Z,6.78
2022-09-06T12:34:31.856Z,7.05
2022-09-06T12:37:04.719Z,6.05
2022-09-06T12:39:35.269Z,6.53
2022-09-06T12:42:13.215Z,6.57
2022-09-06T12:44:51.646Z,7.85
2022-09-06T12:47:29.027Z,4.65
2022-09-06T12:50:15.235Z,8.07
2022-09-06T12:52:52.770Z,5.72
2022-09-06T12:55:38.025Z,7.43
2022-09-06T12:58:07.840Z,8.82
2022-09-06T13:00:40.893Z,8.65
2022-09-06T13:05:43.468Z,6.72
2022-09-06T13:08:20.871Z,6.68
2022-09-06T13:10:52.086Z,6.88
2022-09-06T13:13:25.270Z,6.85
2022-09-06T13:15:55.151Z,7.47
2022-09-06T13:18:40.454Z,5.28
2022-09-06T13:21:15.130Z,6.15
2022-09-06T13:23:45.966Z,7.00
2022-09-06T13:26:39.726Z,5.82
2022-09-06T13:29:23.277Z,9.68
2022-09-06T13:31:55.802Z,7.40
2022-09-06T13:34:29.499Z,6.20
2022-09-06T13:37:02.868Z,7.15
2022-09-06T13:39:32.197Z,5.85
2022-09-06T13:42:05.989Z,7.10
2022-09-06T13:44:34.852Z,8.90
2022-09-06T13:47:05.918Z,5.90
2022-09-06T13:49:34.166Z,5.53
2022-09-06T13:52:04.989Z,7.03
2022-09-06T13:54:33.414Z,7.18
2022-09-06T13:57:01.993Z,7.63
2022-09-06T13:59:34.070Z,6.25
2022-09-06T14:02:13.378Z,7.90
2022-09-06T14:04:40.480Z,6.28
2022-09-06T14:07:07.853Z,7.22
2022-09-06T14:09:36.005Z,7.07
2022-09-06T14:12:03.464Z,7.18
2022-09-06T14:14:30.727Z,7.97
2022-09-06T14:16:57.853Z,6.60
2022-09-06T14:19:31.106Z,5.68
2022-09-06T14:21:58.291Z,7.68
2022-09-06T14:24:25.393Z,6.35
2022-09-06T14:26:55.538Z,5.38
2022-09-06T14:29:29.709Z,6.85
2022-09-06T14:31:57.702Z,9.65
2022-09-06T14:34:48.110Z,5.80
2022-09-06T14:37:16.153Z,6.90
2022-09-06T14:39:45.747Z,5.25
2022-09-06T14:42:20.518Z,10.05
2022-09-06T14:44:47.768Z,7.22
2022-09-06T14:47:16.893Z,7.72
2022-09-06T14:49:51.611Z,6.72
2022-09-06T14:52:35.205Z,7.53
2022-09-06T14:55:08.287Z,4.93
2022-09-06T14:57:36.086Z,6.13
2022-09-06T15:00:13.491Z,7.97
2022-09-06T15:02:40.599Z,5.43
2022-09-06T15:05:09.259Z,6.68
2022-09-06T15:07:36.576Z,5.90
2022-09-06T15:10:04.611Z,6.20
2022-09-06T15:12:31.570Z,5.00
2022-09-06T15:14:58.746Z,6.55
2022-09-06T15:17:25.818Z,6.47
2022-09-06T15:19:54.604Z,4.38
2022-09-06T15:22:21.695Z,7.05
2022-09-06T15:25:02.968Z,5.75
2022-09-06T15:27:32.026Z,4.85
2022-09-06T15:30:05.370Z,5.85
2022-09-06T15:32:39.390Z,8.15
2022-09-06T15:35:08.816Z,5.35
2022-09-06T15:37:52.961Z,7.88
2022-09-06T15:40:27.014Z,6.47
2022-09-06T15:43:08.392Z,4.35
2022-09-06T15:45:50.967Z,7.63
2022-09-06T15:48:19.175Z,8.00
2022-09-06T15:50:51.615Z,7.22
2022-09-06T15:53:20.738Z,4.72
2022-09-06T15:55:59.409Z,6.72
2022-09-06T15:58:31.724Z,6.07
2022-09-06T16:01:11.105Z,7.20
2022-09-06T16:03:43.879Z,4.70
2022-09-06T16:08:58.874Z,6.30
2022-09-06T16:11:37.090Z,5.00
2022-09-06T16:14:06.693Z,5.28
2022-09-06T16:16:46.776Z,5.65
2022-09-06T16:19:15.020Z,9.02
2022-09-06T16:21:49.995Z,6.82
2022-09-06T16:24:19.677Z,8.52
2022-09-06T16:26:47.934Z,7.53
2022-09-06T16:29:16.860Z,6.15
2022-09-06T16:31:44.270Z,4.82
2022-09-06T16:34:15.028Z,5.88
2022-09-06T16:36:43.244Z,5.13
2022-09-06T16:39:11.133Z,6.82
2022-09-06T16:41:45.160Z,5.68
2022-09-06T16:44:17.147Z,8.68
2022-09-06T16:46:49.499Z,4.28
2022-09-06T16:49:18.006Z,5.57
2022-09-06T16:51:46.127Z,6.45
2022-09-06T16:54:14.872Z,7.70
2022-09-06T16:56:42.342Z,10.30
2022-09-06T16:59:11.795Z,6.50
2022-09-06T17:01:43.720Z,8.30
2022-09-06T17:04:13.765Z,7.53
2022-09-06T17:06:47.283Z,5.75
2022-09-06T17:09:19.466Z,11.02
2022-09-06T17:11:50.180Z,7.13
2022-09-06T17:14:20.659Z,5.57
2022-09-06T17:17:07.481Z,5.72
2022-09-06T17:19:37.788Z,6.90
2022-09-06T17:22:06.618Z,8.70
2022-09-06T17:24:34.399Z,9.20
2022-09-06T17:27:05.940Z,6.65
2022-09-06T17:29:36.403Z,7.53
2022-09-06T17:32:10.573Z,6.38
2022-09-06T17:34:42.136Z,9.43
2022-09-06T17:37:09.262Z,9.15
2022-09-06T17:39:44.871Z,9.40
2022-09-06T17:42:13.554Z,10.27
2022-09-06T17:47:17.009Z,5.93
2022-09-06T17:49:54.311Z,7.45
2022-09-06T17:52:22.589Z,9.27
2022-09-06T17:54:49.895Z,11.30
2022-09-06T17:57:30.083Z,9.30
2022-09-06T18:00:05.955Z,22.92
2022-09-06T18:02:33.372Z,19.80
2022-09-06T18:05:01.879Z,21.73
2022-09-06T18:07:33.592Z,22.73
2022-09-06T18:10:02.044Z,19.80
2022-09-06T18:12:33.429Z,20.38
2022-09-06T18:15:03.972Z,18.42
2022-09-06T18:17:32.765Z,16.50
2022-09-06T18:20:04.422Z,20.58
2022-09-06T18:22:32.341Z,24.35
2022-09-06T18:25:00.834Z,20.70
2022-09-06T18:27:52.431Z,20.23
2022-09-06T18:30:19.832Z,17.25
2022-09-06T18:32:48.408Z,18.42
2022-09-06T18:35:17.122Z,12.35
2022-09-06T18:37:52.574Z,12.13
2022-09-06T18:40:23.798Z,14.18
2022-09-06T18:43:02.576Z,11.07
2022-09-06T18:45:34.421Z,13.77
2022-09-06T18:48:12.264Z,15.95
2022-09-06T18:50:50.054Z,15.45
2022-09-06T18:53:19.313Z,17.95
2022-09-06T18:55:52.690Z,13.45
2022-09-06T18:58:20.535Z,13.48
2022-09-06T19:00:51.417Z,9.95
2022-09-06T19:03:56.276Z,7.82
2022-09-06T19:06:30.627Z,11.13
2022-09-06T19:09:09.899Z,9.38
2022-09-06T19:11:46.255Z,12.05
2022-09-06T19:14:15.336Z,10.90
2022-09-06T19:16:54.409Z,14.10
2022-09-06T19:19:27.864Z,12.02
2022-09-06T19:21:56.476Z,13.20
2022-09-06T19:24:26.279Z,8.70
2022-09-06T19:26:57.950Z,11.75
2022-09-06T19:29:27.892Z,26.90
2022-09-06T19:31:57.024Z,35.33
2022-09-06T19:34:42.908Z,26.83
2022-09-06T19:37:19.691Z,18.02
2022-09-06T19:39:49.292Z,8.52
2022-09-06T19:42:17.032Z,6.60
2022-09-06T19:44:45.956Z,8.10
2022-09-06T19:47:19.264Z,8.70
2022-09-06T19:49:47.737Z,6.22
2022-09-06T19:52:16.068Z,8.90
2022-09-06T19:54:44.218Z,7.20
2022-09-06T19:57:13.671Z,6.80
2022-09-06T19:59:42.524Z,9.52
2022-09-06T20:02:14.129Z,8.10
2022-09-06T20:04:47.773Z,9.10
2022-09-06T20:07:20.414Z,7.47
2022-09-06T20:09:52.589Z,7.55
2022-09-06T20:12:21.383Z,10.57
2022-09-06T20:14:55.873Z,9.38
2022-09-06T20:17:34.451Z,7.90
2022-09-06T20:20:04.693Z,7.90
2022-09-06T20:22:33.974Z,10.02
2022-09-06T20:25:01.393Z,6.90
2022-09-06T20:27:31.497Z,7.75
2022-09-06T20:30:02.120Z,8.10
2022-09-06T20:32:35.740Z,7.85
2022-09-06T20:35:03.176Z,6.95
2022-09-06T20:37:30.972Z,6.18
2022-09-06T20:40:00.635Z,7.97
2022-09-06T20:42:33.315Z,6.85
2022-09-06T20:45:07.935Z,6.82
2022-09-06T20:47:39.816Z,7.97
2022-09-06T20:50:27.321Z,9.68
2022-09-06T20:53:03.653Z,8.88
2022-09-06T20:55:32.252Z,10.77
2022-09-06T20:57:59.645Z,14.57
2022-09-06T21:00:26.893Z,7.38
2022-09-06T21:02:54.061Z,8.40
2022-09-06T21:05:21.124Z,8.10
2022-09-06T21:07:50.169Z,8.50
2022-09-06T21:10:18.215Z,9.35
2022-09-06T21:12:45.215Z,9.15
2022-09-06T21:15:13.289Z,7.40
2022-09-06T21:17:40.359Z,6.68
2022-09-06T21:20:18.900Z,6.97
2022-09-06T21:22:49.445Z,7.95
2022-09-06T21:25:16.596Z,8.68
2022-09-06T21:27:43.786Z,7.00
2022-09-06T21:30:11.840Z,6.38
2022-09-06T21:32:39.863Z,6.80
2022-09-06T21:35:07.555Z,7.30
2022-09-06T21:37:34.783Z,6.53
2022-09-06T21:40:02.063Z,6.22
2022-09-06T21:42:31.140Z,11.57
2022-09-06T21:44:58.195Z,7.55
2022-09-06T21:47:30.836Z,9.35
2022-09-06T21:50:01.013Z,8.23
2022-09-06T21:52:35.377Z,9.25
2022-09-06T21:55:02.540Z,7.07
2022-09-06T21:57:30.607Z,7.57
2022-09-06T22:00:21.490Z,7.15
2022-09-06T22:02:49.963Z,9.75
2022-09-06T22:05:17.501Z,7.50
2022-09-06T22:07:45.535Z,10.70
2022-09-06T22:10:12.591Z,8.15
2022-09-06T22:12:42.533Z,8.00
2022-09-06T22:15:10.793Z,8.93
2022-09-06T22:17:38.899Z,11.45
2022-09-06T22:20:08.734Z,10.20
2022-09-06T22:22:38.535Z,10.05
2022-09-06T22:25:06.003Z,11.40
2022-09-06T22:27:41.627Z,9.77
2022-09-06T22:30:09.188Z,7.38
2022-09-06T22:32:39.336Z,10.38
2022-09-06T22:35:10.681Z,9.07
2022-09-06T22:38:03.513Z,12.75
2022-09-06T22:40:31.536Z,10.52
2022-09-06T22:42:59.582Z,8.32
2022-09-06T22:45:30.222Z,10.65
2022-09-06T22:47:57.271Z,11.27
2022-09-06T22:50:27.256Z,7.43
2022-09-06T22:52:59.408Z,10.10
2022-09-06T22:55:31.520Z,5.63
2022-09-06T22:57:59.647Z,11.05
2022-09-06T23:00:30.019Z,8.00
2022-09-06T23:02:59.057Z,6.65
2022-09-06T23:05:31.770Z,6.65
2022-09-06T23:08:16.133Z,6.65
2022-09-06T23:10:44.618Z,7.25
2022-09-06T23:13:20.940Z,8.70
2022-09-06T23:15:54.210Z,8.55
2022-09-06T23:18:21.457Z,10.23
2022-09-06T23:20:48.471Z,8.77
2022-09-06T23:23:15.522Z,8.48
2022-09-06T23:26:08.389Z,9.77
2022-09-06T23:28:36.648Z,9.18
2022-09-06T23:31:16.510Z,6.22
2022-09-06T23:33:45.661Z,10.15
2022-09-06T23:36:15.022Z,9.10
2022-09-06T23:38:43.328Z,9.35
2022-09-06T23:41:12.539Z,6.82
2022-09-06T23:43:44.120Z,8.30
2022-09-06T23:46:36.546Z,8.38
2022-09-06T23:49:03.592Z,8.40
2022-09-06T23:51:31.797Z,7.03
2022-09-06T23:54:01.287Z,8.07
2022-09-06T23:56:32.292Z,8.18
2022-09-06T23:58:59.308Z,9.98
